createdAt,value
2023-02-15T00:01:51.250Z,11.23
2023-02-15T00:04:20.780Z,12.67
2023-02-15T00:06:47.422Z,11.37
2023-02-15T00:09:13.950Z,12.03
2023-02-15T00:11:41.173Z,13.00
2023-02-15T00:14:14.067Z,12.13
2023-02-15T00:16:41.787Z,12.80
2023-02-15T00:19:09.456Z,12.20
2023-02-15T00:21:37.150Z,14.07
2023-02-15T00:24:05.860Z,11.60
2023-02-15T00:26:33.100Z,11.10
2023-02-15T00:29:00.514Z,11.93
2023-02-15T00:31:29.101Z,12.80
2023-02-15T00:33:56.093Z,12.10
2023-02-15T00:36:22.527Z,12.60
2023-02-15T00:38:49.090Z,11.57
2023-02-15T00:41:16.968Z,11.90
2023-02-15T00:43:43.405Z,11.73
2023-02-15T00:46:09.923Z,12.93
2023-02-15T00:48:36.439Z,11.50
2023-02-15T00:51:04.286Z,11.43
2023-02-15T00:53:31.897Z,11.87
2023-02-15T00:55:58.787Z,12.00
2023-02-15T00:58:26.347Z,11.43
2023-02-15T01:00:53.683Z,10.77
2023-02-15T01:03:21.423Z,11.53
2023-02-15T01:05:49.932Z,11.63
2023-02-15T01:08:17.237Z,11.00
2023-02-15T01:10:44.998Z,12.20
2023-02-15T01:13:11.470Z,10.03
2023-02-15T01:15:38.005Z,9.93
2023-02-15T01:18:04.761Z,11.57
2023-02-15T01:20:31.331Z,9.43
2023-02-15T01:22:58.296Z,11.17
2023-02-15T01:25:25.704Z,10.87
2023-02-15T01:27:52.483Z,9.77
2023-02-15T01:30:19.448Z,12.70
2023-02-15T01:32:45.964Z,10.10
2023-02-15T01:35:12.478Z,10.10
2023-02-15T01:37:38.992Z,10.27
2023-02-15T01:40:12.481Z,9.50
2023-02-15T01:42:39.135Z,10.27
2023-02-15T01:45:19.031Z,8.60
2023-02-15T01:47:52.148Z,8.60
2023-02-15T01:50:45.525Z,9.20
2023-02-15T01:53:24.758Z,7.63
2023-02-15T01:56:06.089Z,10.70
2023-02-15T01:58:33.209Z,9.73
2023-02-15T02:01:01.875Z,9.10
2023-02-15T02:03:48.819Z,8.30
2023-02-15T02:06:15.569Z,8.37
2023-02-15T02:08:43.863Z,9.67
2023-02-15T02:11:12.075Z,9.97
2023-02-15T02:13:40.433Z,9.47
2023-02-15T02:16:14.004Z,8.87
2023-02-15T02:18:54.550Z,8.67
2023-02-15T02:21:36.792Z,8.20
2023-02-15T02:24:24.200Z,9.00
2023-02-15T02:27:09.863Z,7.87
2023-02-15T02:30:03.852Z,10.33
2023-02-15T02:32:52.174Z,9.50
2023-02-15T02:35:34.064Z,8.23
2023-02-15T02:38:24.035Z,7.30
2023-02-15T02:41:25.350Z,9.60
2023-02-15T02:44:19.340Z,8.67
2023-02-15T02:46:58.356Z,9.97
2023-02-15T02:49:31.506Z,9.80
2023-02-15T02:52:03.189Z,9.87
2023-02-15T02:54:32.084Z,8.33
2023-02-15T02:57:04.530Z,8.50
2023-02-15T02:59:37.460Z,7.40
2023-02-15T03:02:14.903Z,9.03
2023-02-15T03:04:46.884Z,7.83
2023-02-15T03:07:22.868Z,9.60
2023-02-15T03:09:53.814Z,8.80
2023-02-15T03:12:22.939Z,8.10
2023-02-15T03:14:55.777Z,9.30
2023-02-15T03:17:24.711Z,8.90
2023-02-15T03:19:54.641Z,8.23
2023-02-15T03:22:27.445Z,9.20
2023-02-15T03:25:03.168Z,11.33
2023-02-15T03:27:48.249Z,8.43
2023-02-15T03:30:19.583Z,9.50
2023-02-15T03:32:48.165Z,10.17
2023-02-15T03:35:15.029Z,10.33
2023-02-15T03:38:02.615Z,9.13
2023-02-15T03:40:56.788Z,10.73
2023-02-15T03:43:52.684Z,8.30
2023-02-15T03:46:28.615Z,10.10
2023-02-15T03:49:22.093Z,10.07
2023-02-15T03:51:51.339Z,12.13
2023-02-15T03:54:46.699Z,9.93
2023-02-15T03:57:33.799Z,9.70
2023-02-15T04:00:20.854Z,8.47
2023-02-15T04:03:06.710Z,10.43
2023-02-15T04:05:33.199Z,9.40
2023-02-15T04:07:59.681Z,8.87
2023-02-15T04:10:44.844Z,10.23
2023-02-15T04:13:11.351Z,10.57
2023-02-15T04:15:56.574Z,10.30
2023-02-15T04:18:28.826Z,10.30
2023-02-15T04:21:13.636Z,9.53
2023-02-15T04:23:58.721Z,11.20
2023-02-15T04:26:25.154Z,9.93
2023-02-15T04:28:51.798Z,9.23
2023-02-15T04:31:18.330Z,8.93
2023-02-15T04:33:44.848Z,9.17
2023-02-15T04:36:11.337Z,11.07
2023-02-15T04:38:37.762Z,11.10
2023-02-15T04:41:04.193Z,10.20
2023-02-15T04:43:30.611Z,10.13
2023-02-15T04:45:57.138Z,9.00
2023-02-15T04:48:23.680Z,10.80
2023-02-15T04:50:50.117Z,10.90
2023-02-15T04:53:18.294Z,9.63
2023-02-15T04:55:44.825Z,7.73
2023-02-15T04:58:11.389Z,9.17
2023-02-15T05:00:37.839Z,8.90
2023-02-15T05:03:04.404Z,8.20
2023-02-15T05:05:30.901Z,9.93
2023-02-15T05:07:57.395Z,8.10
2023-02-15T05:10:23.859Z,10.20
2023-02-15T05:12:50.331Z,8.60
2023-02-15T05:15:16.944Z,9.47
2023-02-15T05:17:43.391Z,8.90
2023-02-15T05:20:10.311Z,9.10
2023-02-15T05:22:36.855Z,8.20
2023-02-15T05:25:22.095Z,10.13
2023-02-15T05:28:07.303Z,9.27
2023-02-15T05:30:33.913Z,9.73
2023-02-15T05:33:00.474Z,9.40
2023-02-15T05:35:26.908Z,9.53
2023-02-15T05:37:53.417Z,9.40
2023-02-15T05:40:19.855Z,9.73
2023-02-15T05:42:46.313Z,8.83
2023-02-15T05:45:12.752Z,9.97
2023-02-15T05:47:39.192Z,9.67
2023-02-15T05:50:07.218Z,11.13
2023-02-15T05:52:33.692Z,10.20
2023-02-15T05:55:01.180Z,9.97
2023-02-15T05:57:27.957Z,10.10
2023-02-15T05:59:54.388Z,11.50
2023-02-15T06:02:20.916Z,9.40
2023-02-15T06:04:47.432Z,11.03
2023-02-15T06:07:14.149Z,10.07
2023-02-15T06:09:40.797Z,9.60
2023-02-15T06:12:07.414Z,11.50
2023-02-15T06:14:33.945Z,10.40
2023-02-15T06:17:00.431Z,11.10
2023-02-15T06:19:26.914Z,10.40
2023-02-15T06:21:53.339Z,11.20
2023-02-15T06:24:19.781Z,9.10
2023-02-15T06:26:46.280Z,9.10
2023-02-15T06:29:12.716Z,9.07
2023-02-15T06:31:39.346Z,9.33
2023-02-15T06:34:05.928Z,10.30
2023-02-15T06:36:32.852Z,9.23
2023-02-15T06:38:59.504Z,8.90
2023-02-15T06:41:25.941Z,8.90
2023-02-15T06:43:52.543Z,9.13
2023-02-15T06:46:19.030Z,9.97
2023-02-15T06:48:45.533Z,9.27
2023-02-15T06:51:12.236Z,9.27
2023-02-15T06:53:38.784Z,7.90
2023-02-15T06:56:09.809Z,8.70
2023-02-15T06:58:40.836Z,9.50
2023-02-15T07:01:08.248Z,10.70
2023-02-15T07:03:35.594Z,11.20
2023-02-15T07:06:06.671Z,10.43
2023-02-15T07:08:33.148Z,9.30
2023-02-15T07:11:19.560Z,8.90
2023-02-15T07:13:46.921Z,10.30
2023-02-15T07:16:14.077Z,8.20
2023-02-15T07:18:41.085Z,10.47
2023-02-15T07:21:10.848Z,9.30
2023-02-15T07:23:38.584Z,9.47
2023-02-15T07:26:06.599Z,10.70
2023-02-15T07:28:34.653Z,11.13
2023-02-15T07:31:05.969Z,9.80
2023-02-15T07:33:33.319Z,12.50
2023-02-15T07:36:03.261Z,10.77
2023-02-15T07:38:35.465Z,10.90
2023-02-15T07:41:08.079Z,10.50
2023-02-15T07:43:37.330Z,12.70
2023-02-15T07:46:09.869Z,12.47
2023-02-15T07:48:37.202Z,12.30
2023-02-15T07:51:05.518Z,13.63
2023-02-15T07:53:32.575Z,14.27
2023-02-15T07:56:03.940Z,12.93
2023-02-15T07:58:49.624Z,12.23
2023-02-15T08:01:16.140Z,12.60
2023-02-15T08:03:42.652Z,12.17
2023-02-15T08:06:09.278Z,11.53
2023-02-15T08:08:36.432Z,12.60
2023-02-15T08:11:25.968Z,13.03
2023-02-15T08:14:03.257Z,12.87
2023-02-15T08:16:36.160Z,14.57
2023-02-15T08:19:08.809Z,14.87
2023-02-15T08:21:37.009Z,14.57
2023-02-15T08:24:05.030Z,12.50
2023-02-15T08:26:32.505Z,11.67
2023-02-15T08:28:59.869Z,12.60
2023-02-15T08:31:26.720Z,15.43
2023-02-15T08:33:55.196Z,16.33
2023-02-15T08:36:24.206Z,16.30
2023-02-15T08:38:50.837Z,15.33
2023-02-15T08:41:23.218Z,14.60
2023-02-15T08:43:55.179Z,15.17
2023-02-15T08:46:23.314Z,15.43
2023-02-15T08:48:49.918Z,14.47
2023-02-15T08:51:22.096Z,15.60
2023-02-15T08:53:51.208Z,18.67
2023-02-15T08:56:21.017Z,15.03
2023-02-15T08:58:47.581Z,15.10
2023-02-15T09:01:20.823Z,17.40
2023-02-15T09:03:50.212Z,17.30
2023-02-15T09:06:20.032Z,15.93
2023-02-15T09:08:46.664Z,17.47
2023-02-15T09:11:23.320Z,17.67
2023-02-15T09:13:58.510Z,15.93
2023-02-15T09:16:27.649Z,17.40
2023-02-15T09:18:54.999Z,18.70
2023-02-15T09:21:25.646Z,18.53
2023-02-15T09:23:57.567Z,18.40
2023-02-15T09:26:25.613Z,19.00
2023-02-15T09:28:56.531Z,20.00
2023-02-15T09:31:26.968Z,16.60
2023-02-15T09:33:54.321Z,19.47
2023-02-15T09:36:23.664Z,17.63
2023-02-15T09:39:08.506Z,18.10
2023-02-15T09:41:56.329Z,18.50
2023-02-15T09:45:00.516Z,18.23
2023-02-15T09:47:33.020Z,18.93
2023-02-15T09:50:15.905Z,17.90
2023-02-15T09:53:03.813Z,18.37
2023-02-15T09:55:57.982Z,19.13
2023-02-15T09:58:53.570Z,17.47
2023-02-15T10:01:48.103Z,19.10
2023-02-15T10:04:20.701Z,17.63
2023-02-15T10:07:18.485Z,19.13
2023-02-15T10:10:09.134Z,20.37
2023-02-15T10:12:47.805Z,18.03
2023-02-15T10:15:25.105Z,22.17
2023-02-15T10:18:13.313Z,20.97
2023-02-15T10:21:19.759Z,19.27
2023-02-15T10:23:59.566Z,19.60
2023-02-15T10:26:42.066Z,19.00
2023-02-15T10:29:18.274Z,17.97
2023-02-15T10:31:49.416Z,20.43
2023-02-15T10:34:38.247Z,21.40
2023-02-15T10:37:56.059Z,18.07
2023-02-15T10:40:31.472Z,20.20
2023-02-15T10:43:18.569Z,19.53
2023-02-15T10:45:57.802Z,18.90
2023-02-15T10:48:30.858Z,18.00
2023-02-15T10:51:05.148Z,18.37
2023-02-15T10:53:43.515Z,18.63
2023-02-15T10:56:23.441Z,19.10
2023-02-15T10:59:05.254Z,19.47
2023-02-15T11:01:45.479Z,20.77
2023-02-15T11:04:33.851Z,19.53
2023-02-15T11:07:07.253Z,18.60
2023-02-15T11:09:43.421Z,17.43
2023-02-15T11:12:18.208Z,19.00
2023-02-15T11:14:51.952Z,18.27
2023-02-15T11:17:23.980Z,19.20
2023-02-15T11:20:05.652Z,18.53
2023-02-15T11:22:34.221Z,18.00
2023-02-15T11:25:02.958Z,19.50
2023-02-15T11:27:35.927Z,19.73
2023-02-15T11:30:10.373Z,17.17
2023-02-15T11:32:41.042Z,17.70
2023-02-15T11:35:10.621Z,18.73
2023-02-15T11:37:47.027Z,18.07
2023-02-15T11:40:23.014Z,19.90
2023-02-15T11:42:51.590Z,19.97
2023-02-15T11:45:31.625Z,18.43
2023-02-15T11:48:00.228Z,18.10
2023-02-15T11:50:32.526Z,19.37
2023-02-15T11:53:04.153Z,20.40
2023-02-15T11:55:31.915Z,19.03
2023-02-15T11:58:22.547Z,19.30
2023-02-15T12:00:53.511Z,18.63
2023-02-15T12:03:25.437Z,19.93
2023-02-15T12:05:59.300Z,18.10
2023-02-15T12:08:27.017Z,18.17
2023-02-15T12:11:04.256Z,18.60
2023-02-15T12:13:31.133Z,17.60
2023-02-15T12:15:59.825Z,17.60
2023-02-15T12:18:40.003Z,19.70
2023-02-15T12:21:26.537Z,17.70
2023-02-15T12:23:58.619Z,18.10
2023-02-15T12:26:30.797Z,17.60
2023-02-15T12:29:03.176Z,16.40
2023-02-15T12:31:37.575Z,19.77
2023-02-15T12:34:13.187Z,19.13
2023-02-15T12:36:47.457Z,17.87
2023-02-15T12:39:13.850Z,16.77
2023-02-15T12:41:47.788Z,16.10
2023-02-15T12:44:20.630Z,18.47
2023-02-15T12:47:02.474Z,18.10
2023-02-15T12:49:31.927Z,18.10
2023-02-15T12:52:01.157Z,17.90
2023-02-15T12:54:42.684Z,15.83
2023-02-15T12:57:28.606Z,17.97
2023-02-15T13:00:17.954Z,18.83
2023-02-15T13:02:48.954Z,18.60
2023-02-15T13:05:34.169Z,18.20
2023-02-15T13:08:19.544Z,19.20
2023-02-15T13:11:21.455Z,15.63
2023-02-15T13:13:56.064Z,18.00
2023-02-15T13:16:32.564Z,17.47
2023-02-15T13:19:15.908Z,17.20
2023-02-15T13:21:46.843Z,16.00
2023-02-15T13:24:24.739Z,15.77
2023-02-15T13:26:52.787Z,16.27
2023-02-15T13:29:29.159Z,16.87
2023-02-15T13:31:58.461Z,15.67
2023-02-15T13:34:37.780Z,16.67
2023-02-15T13:37:22.178Z,16.80
2023-02-15T13:39:55.127Z,16.90
2023-02-15T13:42:28.214Z,18.23
2023-02-15T13:45:23.190Z,16.40
2023-02-15T13:47:52.620Z,16.83
2023-02-15T13:50:43.906Z,16.60
2023-02-15T13:53:29.367Z,17.07
2023-02-15T13:56:13.411Z,17.10
2023-02-15T13:58:58.519Z,16.77
2023-02-15T14:01:57.587Z,16.53
2023-02-15T14:04:48.311Z,17.67
2023-02-15T14:07:39.266Z,15.60
2023-02-15T14:10:26.386Z,15.43
2023-02-15T14:13:20.340Z,16.03
2023-02-15T14:15:53.223Z,15.40
2023-02-15T14:18:30.084Z,15.37
2023-02-15T14:21:08.459Z,16.60
2023-02-15T14:23:56.923Z,15.50
2023-02-15T14:26:45.901Z,15.40
2023-02-15T14:29:30.204Z,16.00
2023-02-15T14:32:03.939Z,13.97
2023-02-15T14:34:59.264Z,16.10
2023-02-15T14:37:31.319Z,15.37
2023-02-15T14:40:23.146Z,15.17
2023-02-15T14:43:01.967Z,14.97
2023-02-15T14:45:43.792Z,14.90
2023-02-15T14:48:22.941Z,15.00
2023-02-15T14:50:49.452Z,15.70
2023-02-15T14:53:28.642Z,14.97
2023-02-15T14:56:08.989Z,15.10
2023-02-15T14:58:36.297Z,13.93
2023-02-15T15:01:08.739Z,17.17
2023-02-15T15:03:39.083Z,14.77
2023-02-15T15:06:06.459Z,14.70
2023-02-15T15:08:38.037Z,15.33
2023-02-15T15:11:42.409Z,15.43
2023-02-15T15:14:11.136Z,15.30
2023-02-15T15:16:37.998Z,15.43
2023-02-15T15:19:09.886Z,15.87
2023-02-15T15:21:51.621Z,15.03
2023-02-15T15:24:39.914Z,16.93
2023-02-15T15:27:37.514Z,15.23
2023-02-15T15:30:23.978Z,15.00
2023-02-15T15:32:56.566Z,15.33
2023-02-15T15:35:44.821Z,15.53
2023-02-15T15:38:29.448Z,15.00
2023-02-15T15:41:11.249Z,15.30
2023-02-15T15:44:17.793Z,17.57
2023-02-15T15:46:44.540Z,15.37
2023-02-15T15:49:17.877Z,14.90
2023-02-15T15:51:46.059Z,17.13
2023-02-15T15:54:21.925Z,15.57
2023-02-15T15:56:51.948Z,16.20
2023-02-15T15:59:23.666Z,17.40
2023-02-15T16:01:50.771Z,15.00
2023-02-15T16:04:32.883Z,17.07
2023-02-15T16:07:19.737Z,16.20
2023-02-15T16:10:05.209Z,15.63
2023-02-15T16:12:34.643Z,17.10
2023-02-15T16:15:46.104Z,17.10
2023-02-15T16:18:17.262Z,17.40
2023-02-15T16:20:52.827Z,16.33
2023-02-15T16:23:37.458Z,15.93
2023-02-15T16:26:32.034Z,18.60
2023-02-15T16:28:59.916Z,20.17
2023-02-15T16:31:26.649Z,18.90
2023-02-15T16:33:55.402Z,20.63
2023-02-15T16:36:29.771Z,22.97
2023-02-15T16:38:56.198Z,23.50
2023-02-15T16:41:25.853Z,20.80
2023-02-15T16:43:54.880Z,28.20
2023-02-15T16:46:27.348Z,26.27
2023-02-15T16:48:58.261Z,25.70
2023-02-15T16:51:28.714Z,30.70
2023-02-15T16:53:57.166Z,28.00
2023-02-15T16:56:25.996Z,26.20
2023-02-15T16:58:54.325Z,27.97
2023-02-15T17:01:24.916Z,28.83
2023-02-15T17:04:10.857Z,28.20
2023-02-15T17:06:37.321Z,28.40
2023-02-15T17:09:06.878Z,28.07
2023-02-15T17:11:41.850Z,27.40
2023-02-15T17:14:09.713Z,28.30
2023-02-15T17:16:50.437Z,27.80
2023-02-15T17:19:19.213Z,28.63
2023-02-15T17:21:52.111Z,27.70
2023-02-15T17:24:29.873Z,26.60
2023-02-15T17:27:01.411Z,25.40
2023-02-15T17:29:32.024Z,25.30
2023-02-15T17:31:59.507Z,25.80
2023-02-15T17:35:09.145Z,24.53
2023-02-15T17:37:38.774Z,28.17
2023-02-15T17:40:18.881Z,25.47
2023-02-15T17:42:45.371Z,25.80
2023-02-15T17:45:13.684Z,25.80
2023-02-15T17:47:42.008Z,28.70
2023-02-15T17:50:16.377Z,24.57
2023-02-15T17:52:42.936Z,25.07
2023-02-15T17:55:34.612Z,22.07
2023-02-15T17:58:02.925Z,23.83
2023-02-15T18:00:50.710Z,23.90
2023-02-15T18:03:36.722Z,22.77
2023-02-15T18:06:22.259Z,23.63
2023-02-15T18:09:07.208Z,23.00
2023-02-15T18:11:39.851Z,22.23
2023-02-15T18:14:10.783Z,23.30
2023-02-15T18:16:43.503Z,22.63
2023-02-15T18:19:16.188Z,24.10
2023-02-15T18:21:43.411Z,24.53
2023-02-15T18:24:16.160Z,21.80
2023-02-15T18:26:42.818Z,21.67
2023-02-15T18:29:09.367Z,21.33
2023-02-15T18:31:36.013Z,23.90
2023-02-15T18:34:03.327Z,22.00
2023-02-15T18:36:50.146Z,21.17
2023-02-15T18:39:26.945Z,22.13
2023-02-15T18:41:53.891Z,21.03
2023-02-15T18:44:20.328Z,20.90
2023-02-15T18:46:46.744Z,23.37
2023-02-15T18:49:13.168Z,21.83
2023-02-15T18:51:40.894Z,25.33
2023-02-15T18:54:22.541Z,22.27
2023-02-15T18:56:54.172Z,23.50
2023-02-15T18:59:21.968Z,20.80
2023-02-15T19:01:48.535Z,23.80
2023-02-15T19:04:15.027Z,22.33
2023-02-15T19:06:46.592Z,24.17
2023-02-15T19:09:18.351Z,21.27
2023-02-15T19:11:55.249Z,22.87
2023-02-15T19:14:27.970Z,22.90
2023-02-15T19:16:55.754Z,21.60
2023-02-15T19:19:22.823Z,22.30
2023-02-15T19:21:49.838Z,23.17
2023-02-15T19:24:34.218Z,23.50
2023-02-15T19:27:01.468Z,21.97
2023-02-15T19:29:30.270Z,22.47
2023-02-15T19:31:58.041Z,22.10
2023-02-15T19:34:24.742Z,21.30
2023-02-15T19:36:53.410Z,19.70
2023-02-15T19:39:30.540Z,20.73
2023-02-15T19:41:57.125Z,23.87
2023-02-15T19:44:23.810Z,22.90
2023-02-15T19:46:50.470Z,24.23
2023-02-15T19:49:17.285Z,23.10
2023-02-15T19:51:44.241Z,25.93
2023-02-15T19:54:28.736Z,21.30
2023-02-15T19:56:55.663Z,21.00
2023-02-15T19:59:27.949Z,21.17
2023-02-15T20:01:55.319Z,20.60
2023-02-15T20:04:22.282Z,22.77
2023-02-15T20:06:50.534Z,20.63
2023-02-15T20:09:30.403Z,17.67
2023-02-15T20:11:57.753Z,20.77
2023-02-15T20:14:24.272Z,20.47
2023-02-15T20:16:50.918Z,25.40
2023-02-15T20:19:17.456Z,21.80
2023-02-15T20:21:45.947Z,23.40
2023-02-15T20:24:19.004Z,23.20
2023-02-15T20:26:46.011Z,21.10
2023-02-15T20:29:18.442Z,22.80
2023-02-15T20:31:45.688Z,22.20
2023-02-15T20:34:12.285Z,19.93
2023-02-15T20:36:39.991Z,22.80
2023-02-15T20:39:16.518Z,22.33
2023-02-15T20:41:47.703Z,20.43
2023-02-15T20:44:29.063Z,21.10
2023-02-15T20:46:58.443Z,20.63
2023-02-15T20:49:26.382Z,21.80
2023-02-15T20:51:54.421Z,20.20
2023-02-15T20:54:26.392Z,19.40
2023-02-15T20:56:54.205Z,20.90
2023-02-15T20:59:23.824Z,17.53
2023-02-15T21:01:52.983Z,20.83
2023-02-15T21:04:23.825Z,22.00
2023-02-15T21:06:50.285Z,23.30
2023-02-15T21:09:17.080Z,21.50
2023-02-15T21:11:44.747Z,19.50
2023-02-15T21:14:17.511Z,21.00
2023-02-15T21:16:44.249Z,18.70
2023-02-15T21:19:13.482Z,18.17
2023-02-15T21:21:40.159Z,19.60
2023-02-15T21:24:07.576Z,23.10
2023-02-15T21:26:34.137Z,22.67
2023-02-15T21:29:00.840Z,22.97
2023-02-15T21:31:28.649Z,21.90
2023-02-15T21:33:55.198Z,21.30
2023-02-15T21:36:24.259Z,23.83
2023-02-15T21:38:51.135Z,22.53
2023-02-15T21:41:41.090Z,24.20
2023-02-15T21:44:41.155Z,23.67
2023-02-15T21:47:41.765Z,22.57
2023-02-15T21:50:32.768Z,22.57
2023-02-15T21:52:59.480Z,22.40
2023-02-15T21:55:26.636Z,23.53
2023-02-15T21:57:53.087Z,22.00
2023-02-15T22:00:22.020Z,23.63
2023-02-15T22:02:52.487Z,24.30
2023-02-15T22:05:21.863Z,24.50
2023-02-15T22:07:48.443Z,21.37
2023-02-15T22:10:15.091Z,23.40
2023-02-15T22:12:42.962Z,21.57
2023-02-15T22:15:24.448Z,24.00
2023-02-15T22:17:52.869Z,20.33
2023-02-15T22:20:22.041Z,38.33
2023-02-15T22:22:50.329Z,20.20
2023-02-15T22:25:20.295Z,15.40
2023-02-15T22:27:48.188Z,15.20
2023-02-15T22:30:32.133Z,14.70
2023-02-15T22:33:00.109Z,17.70
2023-02-15T22:35:28.305Z,18.07
2023-02-15T22:37:55.156Z,17.00
2023-02-15T22:40:27.611Z,15.60
2023-02-15T22:42:54.731Z,19.73
2023-02-15T22:45:23.997Z,17.13
2023-02-15T22:47:53.598Z,18.27
2023-02-15T22:50:23.868Z,19.90
2023-02-15T22:52:51.243Z,18.80
2023-02-15T22:55:20.450Z,21.50
2023-02-15T22:57:51.246Z,18.53
2023-02-15T23:00:21.195Z,18.23
2023-02-15T23:02:48.097Z,18.07
2023-02-15T23:05:18.022Z,17.13
2023-02-15T23:07:44.751Z,17.50
2023-02-15T23:10:21.056Z,18.97
2023-02-15T23:13:08.133Z,19.13
2023-02-15T23:15:35.748Z,16.90
2023-02-15T23:18:33.224Z,22.23
2023-02-15T23:21:16.670Z,19.60
2023-02-15T23:23:46.354Z,18.67
2023-02-15T23:26:24.330Z,19.87
2023-02-15T23:28:51.434Z,18.90
2023-02-15T23:31:23.956Z,18.27
2023-02-15T23:33:51.500Z,19.37
2023-02-15T23:36:30.072Z,19.00
2023-02-15T23:38:59.058Z,19.40
2023-02-15T23:41:29.278Z,21.80
2023-02-15T23:44:00.302Z,19.87
2023-02-15T23:46:28.835Z,23.53
2023-02-15T23:48:57.044Z,22.83
2023-02-15T23:51:29.258Z,20.93
2023-02-15T23:53:55.725Z,20.43
2023-02-15T23:56:22.152Z,17.80
2023-02-15T23:58:50.438Z,17.70
